sensor_id;sensor_type;location;lat;lon;timestamp;P1;P2;P0
79038;PMS5003;68436;55.068;73.284;2023-05-07T00:00:58;51.00;39.00;25.50
79038;PMS5003;68436;55.068;73.284;2023-05-07T00:03:25;46.25;38.00;25.75
79038;PMS5003;68436;55.068;73.284;2023-05-07T00:05:52;40.00;32.00;21.00
79038;PMS5003;68436;55.068;73.284;2023-05-07T00:08:18;37.50;30.50;19.50
79038;PMS5003;68436;55.068;73.284;2023-05-07T00:10:44;49.00;40.00;25.75
79038;PMS5003;68436;55.068;73.284;2023-05-07T00:13:18;37.50;30.50;20.00
79038;PMS5003;68436;55.068;73.284;2023-05-07T00:15:44;36.75;29.50;19.00
79038;PMS5003;68436;55.068;73.284;2023-05-07T00:18:18;37.00;30.00;19.33
79038;PMS5003;68436;55.068;73.284;2023-05-07T00:20:47;31.00;26.00;17.00
79038;PMS5003;68436;55.068;73.284;2023-05-07T00:23:18;44.00;36.00;23.00
79038;PMS5003;68436;55.068;73.284;2023-05-07T00:25:44;36.25;29.50;20.00
79038;PMS5003;68436;55.068;73.284;2023-05-07T00:28:18;38.00;30.67;20.67
79038;PMS5003;68436;55.068;73.284;2023-05-07T00:30:44;39.25;31.00;19.75
79038;PMS5003;68436;55.068;73.284;2023-05-07T00:36:12;30.00;25.00;17.00
79038;PMS5003;68436;55.068;73.284;2023-05-07T00:38:38;34.00;27.00;18.00
79038;PMS5003;68436;55.068;73.284;2023-05-07T00:41:05;32.00;26.00;16.00
79038;PMS5003;68436;55.068;73.284;2023-05-07T00:43:49;26.50;23.00;16.00
79038;PMS5003;68436;55.068;73.284;2023-05-07T00:46:17;28.75;23.50;15.75
79038;PMS5003;68436;55.068;73.284;2023-05-07T00:48:43;30.75;25.75;17.00
79038;PMS5003;68436;55.068;73.284;2023-05-07T00:51:09;31.00;25.00;16.00
79038;PMS5003;68436;55.068;73.284;2023-05-07T00:53:36;30.00;24.00;16.00
79038;PMS5003;68436;55.068;73.284;2023-05-07T00:56:02;34.00;27.50;18.00
79038;PMS5003;68436;55.068;73.284;2023-05-07T00:58:28;31.00;26.00;18.00
79038;PMS5003;68436;55.068;73.284;2023-05-07T01:00:55;31.00;24.00;16.00
79038;PMS5003;68436;55.068;73.284;2023-05-07T01:03:40;29.25;24.50;16.00
79038;PMS5003;68436;55.068;73.284;2023-05-07T01:06:06;27.50;23.00;15.00
79038;PMS5003;68436;55.068;73.284;2023-05-07T01:08:33;25.00;22.00;14.00
79038;PMS5003;68436;55.068;73.284;2023-05-07T01:11:01;33.00;26.50;16.00
79038;PMS5003;68436;55.068;73.284;2023-05-07T01:13:27;28.00;23.00;15.33
79038;PMS5003;68436;55.068;73.284;2023-05-07T01:16:12;25.75;21.50;14.00
79038;PMS5003;68436;55.068;73.284;2023-05-07T01:18:38;28.00;23.00;16.00
79038;PMS5003;68436;55.068;73.284;2023-05-07T01:21:05;26.25;22.25;14.00
79038;PMS5003;68436;55.068;73.284;2023-05-07T01:23:32;22.33;19.00;12.33
79038;PMS5003;68436;55.068;73.284;2023-05-07T01:26:18;25.75;21.00;14.00
79038;PMS5003;68436;55.068;73.284;2023-05-07T01:28:45;23.00;20.00;13.00
79038;PMS5003;68436;55.068;73.284;2023-05-07T01:33:56;20.50;17.00;12.00
79038;PMS5003;68436;55.068;73.284;2023-05-07T01:36:23;21.00;18.00;13.00
79038;PMS5003;68436;55.068;73.284;2023-05-07T01:41:36;20.00;17.00;11.00
79038;PMS5003;68436;55.068;73.284;2023-05-07T01:44:03;23.00;19.00;13.00
79038;PMS5003;68436;55.068;73.284;2023-05-07T01:46:48;20.00;17.00;11.00
79038;PMS5003;68436;55.068;73.284;2023-05-07T01:49:14;21.00;18.50;12.75
79038;PMS5003;68436;55.068;73.284;2023-05-07T01:55:15;18.67;16.67;11.00
79038;PMS5003;68436;55.068;73.284;2023-05-07T01:57:42;18.50;15.00;10.00
79038;PMS5003;68436;55.068;73.284;2023-05-07T02:00:09;19.00;16.00;10.75
79038;PMS5003;68436;55.068;73.284;2023-05-07T02:02:41;17.00;15.00;11.00
79038;PMS5003;68436;55.068;73.284;2023-05-07T02:05:25;23.67;19.00;12.00
79038;PMS5003;68436;55.068;73.284;2023-05-07T02:08:27;22.00;19.00;11.00
79038;PMS5003;68436;55.068;73.284;2023-05-07T02:11:11;17.00;15.00;10.00
79038;PMS5003;68436;55.068;73.284;2023-05-07T02:13:37;20.00;17.00;11.00
79038;PMS5003;68436;55.068;73.284;2023-05-07T02:16:23;19.00;17.00;11.00
79038;PMS5003;68436;55.068;73.284;2023-05-07T02:19:09;23.00;18.00;11.00
79038;PMS5003;68436;55.068;73.284;2023-05-07T02:21:35;20.00;17.00;10.00
79038;PMS5003;68436;55.068;73.284;2023-05-07T02:24:20;18.25;15.75;11.00
79038;PMS5003;68436;55.068;73.284;2023-05-07T02:26:46;24.75;20.50;12.00
79038;PMS5003;68436;55.068;73.284;2023-05-07T02:29:31;23.00;19.25;13.00
79038;PMS5003;68436;55.068;73.284;2023-05-07T02:31:57;21.00;17.75;10.75
79038;PMS5003;68436;55.068;73.284;2023-05-07T02:34:23;21.75;18.50;11.25
79038;PMS5003;68436;55.068;73.284;2023-05-07T02:39:52;19.75;17.00;11.00
79038;PMS5003;68436;55.068;73.284;2023-05-07T02:42:18;21.00;17.00;11.25
79038;PMS5003;68436;55.068;73.284;2023-05-07T02:44:44;24.33;20.33;13.00
79038;PMS5003;68436;55.068;73.284;2023-05-07T02:47:10;21.00;17.75;12.00
79038;PMS5003;68436;55.068;73.284;2023-05-07T02:49:40;18.33;16.67;12.00
79038;PMS5003;68436;55.068;73.284;2023-05-07T02:52:07;17.00;14.00;9.00
79038;PMS5003;68436;55.068;73.284;2023-05-07T02:54:52;21.00;18.00;11.00
79038;PMS5003;68436;55.068;73.284;2023-05-07T02:57:18;17.50;15.00;10.00
79038;PMS5003;68436;55.068;73.284;2023-05-07T03:00:12;19.00;17.00;11.00
79038;PMS5003;68436;55.068;73.284;2023-05-07T03:02:41;20.00;17.00;11.00
79038;PMS5003;68436;55.068;73.284;2023-05-07T03:07:52;21.00;18.25;12.00
79038;PMS5003;68436;55.068;73.284;2023-05-07T03:10:18;20.00;17.00;11.00
79038;PMS5003;68436;55.068;73.284;2023-05-07T03:12:44;19.00;16.25;11.00
79038;PMS5003;68436;55.068;73.284;2023-05-07T03:17:59;21.25;20.00;14.00
79038;PMS5003;68436;55.068;73.284;2023-05-07T03:20:25;17.00;15.00;11.00
79038;PMS5003;68436;55.068;73.284;2023-05-07T03:22:52;13.00;12.00;8.00
79038;PMS5003;68436;55.068;73.284;2023-05-07T03:25:18;15.00;13.00;9.00
79038;PMS5003;68436;55.068;73.284;2023-05-07T03:27:44;19.00;17.50;12.00
79038;PMS5003;68436;55.068;73.284;2023-05-07T03:30:10;18.00;16.33;11.00
79038;PMS5003;68436;55.068;73.284;2023-05-07T03:32:36;24.50;22.50;15.00
79038;PMS5003;68436;55.068;73.284;2023-05-07T03:35:06;21.33;19.33;14.00
79038;PMS5003;68436;55.068;73.284;2023-05-07T03:37:51;21.00;20.00;14.00
79038;PMS5003;68436;55.068;73.284;2023-05-07T03:40:17;22.00;20.00;14.00
79038;PMS5003;68436;55.068;73.284;2023-05-07T03:42:48;19.00;17.75;11.50
79038;PMS5003;68436;55.068;73.284;2023-05-07T03:45:16;16.33;15.00;10.00
79038;PMS5003;68436;55.068;73.284;2023-05-07T03:47:47;17.75;16.00;11.25
79038;PMS5003;68436;55.068;73.284;2023-05-07T03:50:17;17.00;15.25;10.00
79038;PMS5003;68436;55.068;73.284;2023-05-07T03:53:01;20.00;15.00;11.00
79038;PMS5003;68436;55.068;73.284;2023-05-07T03:55:29;15.00;13.00;9.00
79038;PMS5003;68436;55.068;73.284;2023-05-07T03:57:58;20.25;16.75;10.75
79038;PMS5003;68436;55.068;73.284;2023-05-07T04:00:26;15.00;14.00;9.00
79038;PMS5003;68436;55.068;73.284;2023-05-07T04:02:57;18.25;16.00;10.00
79038;PMS5003;68436;55.068;73.284;2023-05-07T04:05:26;16.00;14.00;9.00
79038;PMS5003;68436;55.068;73.284;2023-05-07T04:07:57;21.00;17.75;11.00
79038;PMS5003;68436;55.068;73.284;2023-05-07T04:10:42;10.50;10.00;6.75
79038;PMS5003;68436;55.068;73.284;2023-05-07T04:13:18;16.00;14.00;8.00
79038;PMS5003;68436;55.068;73.284;2023-05-07T04:18:29;14.67;12.00;9.00
79038;PMS5003;68436;55.068;73.284;2023-05-07T04:20:55;15.50;14.00;9.00
79038;PMS5003;68436;55.068;73.284;2023-05-07T04:23:21;13.00;11.33;7.67
79038;PMS5003;68436;55.068;73.284;2023-05-07T04:25:47;15.25;13.50;10.00
79038;PMS5003;68436;55.068;73.284;2023-05-07T04:28:32;14.00;13.00;9.00
79038;PMS5003;68436;55.068;73.284;2023-05-07T04:30:58;12.50;11.50;8.00
79038;PMS5003;68436;55.068;73.284;2023-05-07T04:36:27;11.00;10.00;7.00
79038;PMS5003;68436;55.068;73.284;2023-05-07T04:39:05;13.50;12.00;8.00
79038;PMS5003;68436;55.068;73.284;2023-05-07T04:44:16;12.00;10.00;7.00
79038;PMS5003;68436;55.068;73.284;2023-05-07T04:46:43;10.00;9.00;6.25
79038;PMS5003;68436;55.068;73.284;2023-05-07T04:49:09;10.00;9.33;6.00
79038;PMS5003;68436;55.068;73.284;2023-05-07T04:51:54;12.75;11.00;8.00
79038;PMS5003;68436;55.068;73.284;2023-05-07T04:54:39;34.00;25.50;16.50
79038;PMS5003;68436;55.068;73.284;2023-05-07T04:57:23;12.00;10.00;6.00
79038;PMS5003;68436;55.068;73.284;2023-05-07T04:59:49;10.00;9.00;6.00
79038;PMS5003;68436;55.068;73.284;2023-05-07T05:02:33;10.75;10.00;6.75
79038;PMS5003;68436;55.068;73.284;2023-05-07T05:05:18;13.00;11.67;7.00
79038;PMS5003;68436;55.068;73.284;2023-05-07T05:10:34;10.00;8.00;5.00
79038;PMS5003;68436;55.068;73.284;2023-05-07T05:13:00;7.00;7.00;5.00
79038;PMS5003;68436;55.068;73.284;2023-05-07T05:15:27;6.00;6.00;4.00
79038;PMS5003;68436;55.068;73.284;2023-05-07T05:17:53;8.00;7.00;5.00
79038;PMS5003;68436;55.068;73.284;2023-05-07T05:20:19;9.00;8.25;6.00
79038;PMS5003;68436;55.068;73.284;2023-05-07T05:25:32;9.00;8.00;5.00
79038;PMS5003;68436;55.068;73.284;2023-05-07T05:27:59;9.00;8.00;6.00
79038;PMS5003;68436;55.068;73.284;2023-05-07T05:30:25;21.00;15.00;9.00
79038;PMS5003;68436;55.068;73.284;2023-05-07T05:32:51;8.00;8.00;5.75
79038;PMS5003;68436;55.068;73.284;2023-05-07T05:35:19;8.00;6.33;4.00
79038;PMS5003;68436;55.068;73.284;2023-05-07T05:40:47;8.00;7.75;5.00
79038;PMS5003;68436;55.068;73.284;2023-05-07T05:46:02;9.00;8.00;5.00
79038;PMS5003;68436;55.068;73.284;2023-05-07T05:51:15;8.25;8.00;5.00
79038;PMS5003;68436;55.068;73.284;2023-05-07T05:53:41;13.00;11.00;8.00
79038;PMS5003;68436;55.068;73.284;2023-05-07T05:56:08;21.00;17.00;9.00
79038;PMS5003;68436;55.068;73.284;2023-05-07T05:58:53;16.00;14.00;10.00
79038;PMS5003;68436;55.068;73.284;2023-05-07T06:04:04;10.00;8.00;5.00
79038;PMS5003;68436;55.068;73.284;2023-05-07T06:06:30;6.00;6.00;5.00
79038;PMS5003;68436;55.068;73.284;2023-05-07T06:09:15;8.00;7.00;4.50
79038;PMS5003;68436;55.068;73.284;2023-05-07T06:12:00;7.00;6.00;4.75
79038;PMS5003;68436;55.068;73.284;2023-05-07T06:14:27;8.00;7.00;5.00
79038;PMS5003;68436;55.068;73.284;2023-05-07T06:17:12;6.75;5.75;4.00
79038;PMS5003;68436;55.068;73.284;2023-05-07T06:19:57;6.67;6.00;5.00
79038;PMS5003;68436;55.068;73.284;2023-05-07T06:22:23;7.00;6.00;4.00
79038;PMS5003;68436;55.068;73.284;2023-05-07T06:24:50;7.00;6.00;4.00
79038;PMS5003;68436;55.068;73.284;2023-05-07T06:27:37;6.00;6.00;4.00
79038;PMS5003;68436;55.068;73.284;2023-05-07T06:30:05;7.00;6.00;5.00
79038;PMS5003;68436;55.068;73.284;2023-05-07T06:32:31;7.00;6.50;4.00
79038;PMS5003;68436;55.068;73.284;2023-05-07T06:35:17;17.33;15.67;9.67
79038;PMS5003;68436;55.068;73.284;2023-05-07T06:37:43;7.50;7.00;5.00
79038;PMS5003;68436;55.068;73.284;2023-05-07T06:43:18;5.00;5.00;4.00
79038;PMS5003;68436;55.068;73.284;2023-05-07T06:45:54;7.75;7.00;4.75
79038;PMS5003;68436;55.068;73.284;2023-05-07T06:51:05;7.75;6.00;4.00
79038;PMS5003;68436;55.068;73.284;2023-05-07T06:53:32;11.00;10.00;6.00
79038;PMS5003;68436;55.068;73.284;2023-05-07T06:55:59;6.00;5.50;4.00
79038;PMS5003;68436;55.068;73.284;2023-05-07T06:58:25;7.00;6.00;4.00
79038;PMS5003;68436;55.068;73.284;2023-05-07T07:00:51;10.25;9.00;6.00
79038;PMS5003;68436;55.068;73.284;2023-05-07T07:03:36;6.00;5.00;4.00
79038;PMS5003;68436;55.068;73.284;2023-05-07T07:06:02;6.00;5.00;4.00
79038;PMS5003;68436;55.068;73.284;2023-05-07T07:08:29;4.00;4.00;3.00
79038;PMS5003;68436;55.068;73.284;2023-05-07T07:10:56;6.00;6.00;4.00
79038;PMS5003;68436;55.068;73.284;2023-05-07T07:13:22;6.00;5.50;4.00
79038;PMS5003;68436;55.068;73.284;2023-05-07T07:15:47;10.00;9.00;6.00
79038;PMS5003;68436;55.068;73.284;2023-05-07T07:18:18;8.00;7.00;5.00
79038;PMS5003;68436;55.068;73.284;2023-05-07T07:20:46;7.00;6.00;4.00
79038;PMS5003;68436;55.068;73.284;2023-05-07T07:26:02;6.25;6.00;4.00
79038;PMS5003;68436;55.068;73.284;2023-05-07T07:28:28;5.00;5.00;3.33
79038;PMS5003;68436;55.068;73.284;2023-05-07T07:31:16;6.00;5.00;4.00
79038;PMS5003;68436;55.068;73.284;2023-05-07T07:33:43;7.00;7.00;4.00
79038;PMS5003;68436;55.068;73.284;2023-05-07T07:36:09;5.00;5.00;4.00
79038;PMS5003;68436;55.068;73.284;2023-05-07T07:38:54;6.00;6.00;4.00
79038;PMS5003;68436;55.068;73.284;2023-05-07T07:41:20;5.00;5.00;3.50
79038;PMS5003;68436;55.068;73.284;2023-05-07T07:44:05;6.00;6.00;5.00
79038;PMS5003;68436;55.068;73.284;2023-05-07T07:46:51;7.00;6.00;4.00
79038;PMS5003;68436;55.068;73.284;2023-05-07T07:49:18;6.67;6.00;4.00
79038;PMS5003;68436;55.068;73.284;2023-05-07T07:51:45;6.00;6.00;4.00
79038;PMS5003;68436;55.068;73.284;2023-05-07T07:54:15;9.00;8.25;6.50
79038;PMS5003;68436;55.068;73.284;2023-05-07T07:56:44;8.00;8.00;5.00
79038;PMS5003;68436;55.068;73.284;2023-05-07T07:59:12;16.00;14.00;10.00
79038;PMS5003;68436;55.068;73.284;2023-05-07T08:04:49;5.00;5.00;3.00
79038;PMS5003;68436;55.068;73.284;2023-05-07T08:07:16;5.00;5.00;3.00
79038;PMS5003;68436;55.068;73.284;2023-05-07T08:09:46;6.00;6.00;5.00
79038;PMS5003;68436;55.068;73.284;2023-05-07T08:12:14;5.00;5.00;4.00
79038;PMS5003;68436;55.068;73.284;2023-05-07T08:14:58;7.00;7.00;5.00
79038;PMS5003;68436;55.068;73.284;2023-05-07T08:17:24;6.00;6.00;4.00
79038;PMS5003;68436;55.068;73.284;2023-05-07T08:19:50;7.00;6.00;4.00
79038;PMS5003;68436;55.068;73.284;2023-05-07T08:22:16;12.00;11.00;7.00
79038;PMS5003;68436;55.068;73.284;2023-05-07T08:24:44;9.00;8.00;5.00
79038;PMS5003;68436;55.068;73.284;2023-05-07T08:27:11;9.00;8.00;5.00
79038;PMS5003;68436;55.068;73.284;2023-05-07T08:29:39;6.00;6.00;4.00
79038;PMS5003;68436;55.068;73.284;2023-05-07T08:32:24;6.00;6.00;5.00
79038;PMS5003;68436;55.068;73.284;2023-05-07T08:34:51;7.00;6.00;4.00
79038;PMS5003;68436;55.068;73.284;2023-05-07T08:37:17;6.00;6.00;3.50
79038;PMS5003;68436;55.068;73.284;2023-05-07T08:39:44;10.00;9.00;6.00
79038;PMS5003;68436;55.068;73.284;2023-05-07T08:42:35;8.75;8.00;5.75
79038;PMS5003;68436;55.068;73.284;2023-05-07T08:45:02;20.33;17.67;11.00
79038;PMS5003;68436;55.068;73.284;2023-05-07T08:47:34;11.00;10.00;6.00
79038;PMS5003;68436;55.068;73.284;2023-05-07T08:50:04;5.33;5.00;3.00
79038;PMS5003;68436;55.068;73.284;2023-05-07T08:52:30;5.00;5.00;3.00
79038;PMS5003;68436;55.068;73.284;2023-05-07T08:57:41;6.00;5.00;3.00
79038;PMS5003;68436;55.068;73.284;2023-05-07T09:02:55;7.00;6.00;5.00
79038;PMS5003;68436;55.068;73.284;2023-05-07T09:05:21;5.00;5.00;3.00
79038;PMS5003;68436;55.068;73.284;2023-05-07T09:07:48;6.00;5.00;4.00
79038;PMS5003;68436;55.068;73.284;2023-05-07T09:10:15;4.75;4.00;3.00
79038;PMS5003;68436;55.068;73.284;2023-05-07T09:12:59;6.25;6.25;4.00
79038;PMS5003;68436;55.068;73.284;2023-05-07T09:15:26;7.00;6.00;4.00
79038;PMS5003;68436;55.068;73.284;2023-05-07T09:18:30;8.00;7.00;4.00
79038;PMS5003;68436;55.068;73.284;2023-05-07T09:20:56;6.00;5.25;4.00
79038;PMS5003;68436;55.068;73.284;2023-05-07T09:23:22;8.00;7.20;5.20
79038;PMS5003;68436;55.068;73.284;2023-05-07T09:25:49;6.00;6.00;4.00
79038;PMS5003;68436;55.068;73.284;2023-05-07T09:28:22;7.00;6.40;4.60
79038;PMS5003;68436;55.068;73.284;2023-05-07T09:30:49;8.75;8.25;5.25
79038;PMS5003;68436;55.068;73.284;2023-05-07T09:33:18;7.00;7.00;5.00
79038;PMS5003;68436;55.068;73.284;2023-05-07T09:35:51;7.50;7.00;4.50
79038;PMS5003;68436;55.068;73.284;2023-05-07T09:38:38;42.00;28.00;14.00
79038;PMS5003;68436;55.068;73.284;2023-05-07T09:41:09;12.50;10.00;5.00
79038;PMS5003;68436;55.068;73.284;2023-05-07T09:44:04;8.00;7.00;5.00
79038;PMS5003;68436;55.068;73.284;2023-05-07T09:46:36;10.50;9.50;6.00
79038;PMS5003;68436;55.068;73.284;2023-05-07T09:49:30;7.00;6.33;4.00
79038;PMS5003;68436;55.068;73.284;2023-05-07T09:52:04;9.25;9.00;6.00
79038;PMS5003;68436;55.068;73.284;2023-05-07T09:57:27;5.75;5.00;4.00
79038;PMS5003;68436;55.068;73.284;2023-05-07T09:59:58;7.00;6.00;4.00
79038;PMS5003;68436;55.068;73.284;2023-05-07T10:02:28;7.00;6.00;4.00
79038;PMS5003;68436;55.068;73.284;2023-05-07T10:04:55;6.00;6.00;5.00
79038;PMS5003;68436;55.068;73.284;2023-05-07T10:07:40;7.00;7.00;5.00
79038;PMS5003;68436;55.068;73.284;2023-05-07T10:10:44;5.00;5.00;3.75
79038;PMS5003;68436;55.068;73.284;2023-05-07T10:13:29;7.50;7.00;5.00
79038;PMS5003;68436;55.068;73.284;2023-05-07T10:15:58;8.00;7.00;4.00
79038;PMS5003;68436;55.068;73.284;2023-05-07T10:18:30;10.50;9.00;5.00
79038;PMS5003;68436;55.068;73.284;2023-05-07T10:21:08;11.00;9.00;6.00
79038;PMS5003;68436;55.068;73.284;2023-05-07T10:23:35;6.00;5.33;4.00
79038;PMS5003;68436;55.068;73.284;2023-05-07T10:26:02;8.00;7.00;5.00
79038;PMS5003;68436;55.068;73.284;2023-05-07T10:28:31;24.00;16.00;8.00
79038;PMS5003;68436;55.068;73.284;2023-05-07T10:33:35;8.67;7.67;5.00
79038;PMS5003;68436;55.068;73.284;2023-05-07T10:36:21;7.00;6.00;4.00
79038;PMS5003;68436;55.068;73.284;2023-05-07T10:38:50;7.00;6.00;4.00
79038;PMS5003;68436;55.068;73.284;2023-05-07T10:41:17;7.00;6.00;3.75
79038;PMS5003;68436;55.068;73.284;2023-05-07T10:43:45;10.00;8.67;6.00
79038;PMS5003;68436;55.068;73.284;2023-05-07T10:46:32;6.00;6.00;4.00
79038;PMS5003;68436;55.068;73.284;2023-05-07T10:49:20;6.25;6.00;4.00
79038;PMS5003;68436;55.068;73.284;2023-05-07T10:52:13;8.00;7.00;5.00
79038;PMS5003;68436;55.068;73.284;2023-05-07T10:57:48;8.00;7.00;5.00
79038;PMS5003;68436;55.068;73.284;2023-05-07T11:03:27;8.50;8.00;5.00
79038;PMS5003;68436;55.068;73.284;2023-05-07T11:06:13;8.00;7.25;5.00
79038;PMS5003;68436;55.068;73.284;2023-05-07T11:09:03;13.00;10.00;6.33
79038;PMS5003;68436;55.068;73.284;2023-05-07T11:14:47;7.33;7.00;5.00
79038;PMS5003;68436;55.068;73.284;2023-05-07T11:17:23;8.50;7.00;5.00
79038;PMS5003;68436;55.068;73.284;2023-05-07T11:22:52;9.00;8.00;5.00
79038;PMS5003;68436;55.068;73.284;2023-05-07T11:25:45;7.00;7.00;5.00
79038;PMS5003;68436;55.068;73.284;2023-05-07T11:28:18;11.00;9.00;6.00
79038;PMS5003;68436;55.068;73.284;2023-05-07T11:30:58;10.00;9.00;7.00
79038;PMS5003;68436;55.068;73.284;2023-05-07T11:34:01;10.00;9.00;6.00
79038;PMS5003;68436;55.068;73.284;2023-05-07T11:36:31;11.00;10.00;7.00
79038;PMS5003;68436;55.068;73.284;2023-05-07T11:38:58;11.00;10.00;7.00
79038;PMS5003;68436;55.068;73.284;2023-05-07T11:41:37;14.25;13.00;9.00
79038;PMS5003;68436;55.068;73.284;2023-05-07T11:44:03;11.00;9.00;6.00
79038;PMS5003;68436;55.068;73.284;2023-05-07T11:46:49;11.00;10.00;7.00
79038;PMS5003;68436;55.068;73.284;2023-05-07T11:49:16;11.33;9.33;6.00
79038;PMS5003;68436;55.068;73.284;2023-05-07T11:51:42;11.75;10.00;7.00
79038;PMS5003;68436;55.068;73.284;2023-05-07T11:54:08;13.00;12.00;8.00
79038;PMS5003;68436;55.068;73.284;2023-05-07T11:56:36;12.25;11.00;8.00
79038;PMS5003;68436;55.068;73.284;2023-05-07T11:59:03;13.00;12.00;8.00
79038;PMS5003;68436;55.068;73.284;2023-05-07T12:01:29;11.00;10.00;7.00
79038;PMS5003;68436;55.068;73.284;2023-05-07T12:03:55;11.00;10.00;7.00
79038;PMS5003;68436;55.068;73.284;2023-05-07T12:06:21;13.75;11.50;8.00
79038;PMS5003;68436;55.068;73.284;2023-05-07T12:08:47;13.33;12.00;8.00
79038;PMS5003;68436;55.068;73.284;2023-05-07T12:11:18;11.50;10.50;7.00
79038;PMS5003;68436;55.068;73.284;2023-05-07T12:13:47;12.00;11.00;8.00
79038;PMS5003;68436;55.068;73.284;2023-05-07T12:16:13;13.00;11.75;7.50
79038;PMS5003;68436;55.068;73.284;2023-05-07T12:18:58;12.00;11.00;8.00
79038;PMS5003;68436;55.068;73.284;2023-05-07T12:27:12;15.00;13.50;8.75
79038;PMS5003;68436;55.068;73.284;2023-05-07T12:29:38;13.00;12.00;8.00
79038;PMS5003;68436;55.068;73.284;2023-05-07T12:32:06;13.00;12.00;8.00
79038;PMS5003;68436;55.068;73.284;2023-05-07T12:34:32;9.67;9.00;6.00
79038;PMS5003;68436;55.068;73.284;2023-05-07T12:37:01;9.00;8.00;6.00
79038;PMS5003;68436;55.068;73.284;2023-05-07T12:39:27;14.00;12.00;8.00
79038;PMS5003;68436;55.068;73.284;2023-05-07T12:42:14;14.00;13.00;9.00
79038;PMS5003;68436;55.068;73.284;2023-05-07T12:44:40;17.00;15.67;11.00
79038;PMS5003;68436;55.068;73.284;2023-05-07T12:47:07;10.00;9.00;6.00
79038;PMS5003;68436;55.068;73.284;2023-05-07T12:49:34;10.75;10.00;7.00
79038;PMS5003;68436;55.068;73.284;2023-05-07T12:52:21;13.00;11.00;8.00
79038;PMS5003;68436;55.068;73.284;2023-05-07T12:54:47;13.00;12.00;8.00
79038;PMS5003;68436;55.068;73.284;2023-05-07T12:57:13;11.00;10.00;7.00
79038;PMS5003;68436;55.068;73.284;2023-05-07T12:59:40;12.00;10.33;8.00
79038;PMS5003;68436;55.068;73.284;2023-05-07T13:02:06;13.00;12.00;9.00
79038;PMS5003;68436;55.068;73.284;2023-05-07T13:04:36;12.00;11.00;8.00
79038;PMS5003;68436;55.068;73.284;2023-05-07T13:07:02;15.00;13.00;8.00
79038;PMS5003;68436;55.068;73.284;2023-05-07T13:09:28;22.33;17.67;11.67
79038;PMS5003;68436;55.068;73.284;2023-05-07T13:11:55;20.00;17.00;10.00
79038;PMS5003;68436;55.068;73.284;2023-05-07T13:14:20;13.00;12.00;8.00
79038;PMS5003;68436;55.068;73.284;2023-05-07T13:17:05;16.75;14.50;9.00
79038;PMS5003;68436;55.068;73.284;2023-05-07T13:19:31;19.00;15.00;10.00
79038;PMS5003;68436;55.068;73.284;2023-05-07T13:22:15;13.25;11.25;8.50
79038;PMS5003;68436;55.068;73.284;2023-05-07T13:25:00;14.00;13.00;9.00
79038;PMS5003;68436;55.068;73.284;2023-05-07T13:27:25;15.50;13.00;9.25
79038;PMS5003;68436;55.068;73.284;2023-05-07T13:29:51;15.00;14.00;10.00
79038;PMS5003;68436;55.068;73.284;2023-05-07T13:32:17;19.00;17.00;11.00
79038;PMS5003;68436;55.068;73.284;2023-05-07T13:34:43;19.00;17.00;11.00
79038;PMS5003;68436;55.068;73.284;2023-05-07T13:37:09;17.25;15.50;10.50
79038;PMS5003;68436;55.068;73.284;2023-05-07T13:39:36;15.00;13.00;9.00
79038;PMS5003;68436;55.068;73.284;2023-05-07T13:42:03;17.00;15.00;11.00
79038;PMS5003;68436;55.068;73.284;2023-05-07T13:44:47;15.33;14.00;9.00
79038;PMS5003;68436;55.068;73.284;2023-05-07T13:47:13;18.25;16.75;10.50
79038;PMS5003;68436;55.068;73.284;2023-05-07T13:49:39;18.75;17.00;11.50
79038;PMS5003;68436;55.068;73.284;2023-05-07T13:54:49;18.00;16.00;11.00
79038;PMS5003;68436;55.068;73.284;2023-05-07T13:57:18;16.00;14.00;10.00
79038;PMS5003;68436;55.068;73.284;2023-05-07T14:00:03;19.00;17.67;12.00
79038;PMS5003;68436;55.068;73.284;2023-05-07T14:02:40;19.00;16.00;10.00
79038;PMS5003;68436;55.068;73.284;2023-05-07T14:05:06;19.33;17.00;12.00
79038;PMS5003;68436;55.068;73.284;2023-05-07T14:07:33;20.00;18.00;12.00
79038;PMS5003;68436;55.068;73.284;2023-05-07T14:09:59;21.00;19.00;13.00
79038;PMS5003;68436;55.068;73.284;2023-05-07T14:12:25;23.00;20.00;13.00
79038;PMS5003;68436;55.068;73.284;2023-05-07T14:14:51;23.25;21.50;14.00
79038;PMS5003;68436;55.068;73.284;2023-05-07T14:17:17;21.25;19.00;13.00
79038;PMS5003;68436;55.068;73.284;2023-05-07T14:20:02;25.00;22.00;16.00
79038;PMS5003;68436;55.068;73.284;2023-05-07T14:22:29;27.75;25.00;16.25
79038;PMS5003;68436;55.068;73.284;2023-05-07T14:24:55;29.67;26.00;18.00
79038;PMS5003;68436;55.068;73.284;2023-05-07T14:27:40;28.00;24.00;16.75
79038;PMS5003;68436;55.068;73.284;2023-05-07T14:30:24;26.33;23.33;15.00
79038;PMS5003;68436;55.068;73.284;2023-05-07T14:33:18;24.00;22.00;15.00
79038;PMS5003;68436;55.068;73.284;2023-05-07T14:36:02;33.00;26.75;17.00
79038;PMS5003;68436;55.068;73.284;2023-05-07T14:38:29;27.00;23.00;15.00
79038;PMS5003;68436;55.068;73.284;2023-05-07T14:40:55;69.75;56.50;36.25
79038;PMS5003;68436;55.068;73.284;2023-05-07T14:43:21;32.00;26.25;15.75
79038;PMS5003;68436;55.068;73.284;2023-05-07T14:48:33;31.75;27.00;17.00
79038;PMS5003;68436;55.068;73.284;2023-05-07T14:50:59;34.00;28.00;19.00
79038;PMS5003;68436;55.068;73.284;2023-05-07T14:53:44;32.00;27.00;17.00
79038;PMS5003;68436;55.068;73.284;2023-05-07T14:56:10;32.00;27.25;19.00
79038;PMS5003;68436;55.068;73.284;2023-05-07T14:58:36;38.00;32.00;20.00
79038;PMS5003;68436;55.068;73.284;2023-05-07T15:01:03;44.50;37.00;25.00
79038;PMS5003;68436;55.068;73.284;2023-05-07T15:03:29;44.00;37.00;25.75
79038;PMS5003;68436;55.068;73.284;2023-05-07T15:05:55;44.50;36.50;23.00
79038;PMS5003;68436;55.068;73.284;2023-05-07T15:08:21;39.67;33.00;21.00
79038;PMS5003;68436;55.068;73.284;2023-05-07T15:11:05;42.00;34.00;23.00
79038;PMS5003;68436;55.068;73.284;2023-05-07T15:16:19;37.00;31.00;19.75
79038;PMS5003;68436;55.068;73.284;2023-05-07T15:19:03;36.00;30.00;20.00
79038;PMS5003;68436;55.068;73.284;2023-05-07T15:21:29;34.00;29.00;18.75
79038;PMS5003;68436;55.068;73.284;2023-05-07T15:24:15;35.00;29.00;18.00
79038;PMS5003;68436;55.068;73.284;2023-05-07T15:26:41;34.00;29.00;19.00
79038;PMS5003;68436;55.068;73.284;2023-05-07T15:29:07;35.00;29.00;19.00
79038;PMS5003;68436;55.068;73.284;2023-05-07T15:31:35;37.75;31.00;21.00
79038;PMS5003;68436;55.068;73.284;2023-05-07T15:34:21;38.00;32.00;22.00
79038;PMS5003;68436;55.068;73.284;2023-05-07T15:37:07;42.25;34.75;22.00
79038;PMS5003;68436;55.068;73.284;2023-05-07T15:39:33;37.33;32.00;21.00
79038;PMS5003;68436;55.068;73.284;2023-05-07T15:41:59;38.50;32.00;21.00
79038;PMS5003;68436;55.068;73.284;2023-05-07T15:44:26;39.00;32.00;21.00
79038;PMS5003;68436;55.068;73.284;2023-05-07T15:46:55;40.00;32.00;21.00
79038;PMS5003;68436;55.068;73.284;2023-05-07T15:49:21;39.67;32.67;22.00